createdAt,value
2022-08-23T00:02:39.911Z,16.13
2022-08-23T00:07:46.699Z,16.55
2022-08-23T00:12:49.663Z,17.88
2022-08-23T00:17:52.906Z,14.98
2022-08-23T00:22:57.692Z,16.58
2022-08-23T00:28:00.682Z,17.38
2022-08-23T00:33:07.221Z,16.92
2022-08-23T00:38:32.469Z,16.02
2022-08-23T00:43:57.621Z,16.20
2022-08-23T00:49:01.857Z,17.52
2022-08-23T00:54:09.772Z,15.00
2022-08-23T00:59:15.235Z,12.88
2022-08-23T01:04:18.740Z,14.13
2022-08-23T01:09:23.560Z,10.90
2022-08-23T01:14:32.514Z,10.57
2022-08-23T01:19:37.890Z,10.30
2022-08-23T01:25:06.210Z,11.50
2022-08-23T01:30:11.266Z,11.20
2022-08-23T01:35:14.858Z,12.20
2022-08-23T01:40:19.397Z,10.00
2022-08-23T01:45:22.677Z,10.55
2022-08-23T01:50:26.253Z,11.27
2022-08-23T01:55:30.984Z,8.65
2022-08-23T02:00:37.028Z,7.95
2022-08-23T02:05:40.644Z,10.40
2022-08-23T02:10:46.037Z,9.38
2022-08-23T02:15:51.604Z,8.70
2022-08-23T02:20:54.768Z,11.10
2022-08-23T02:25:59.449Z,9.70
2022-08-23T02:31:05.343Z,10.50
2022-08-23T02:36:08.977Z,12.10
2022-08-23T02:41:13.393Z,12.35
2022-08-23T02:46:16.307Z,14.55
2022-08-23T02:51:19.405Z,14.45
2022-08-23T02:56:23.860Z,13.95
2022-08-23T03:01:29.058Z,16.70
2022-08-23T03:06:32.437Z,15.63
2022-08-23T03:11:37.189Z,17.45
2022-08-23T03:16:40.666Z,15.13
2022-08-23T03:21:43.648Z,16.55
2022-08-23T03:26:49.163Z,17.27
2022-08-23T03:31:53.905Z,18.23
2022-08-23T03:36:56.899Z,18.90
2022-08-23T03:42:01.431Z,16.15
2022-08-23T03:47:06.208Z,19.10
2022-08-23T03:52:09.048Z,18.63
2022-08-23T03:57:13.674Z,19.40
2022-08-23T04:02:17.326Z,15.95
2022-08-23T04:07:21.137Z,17.27
2022-08-23T04:12:25.971Z,15.65
2022-08-23T04:17:32.435Z,14.80
2022-08-23T04:22:35.594Z,17.60
2022-08-23T04:27:39.869Z,17.80
2022-08-23T04:32:43.184Z,19.00
2022-08-23T04:37:49.024Z,15.93
2022-08-23T04:42:53.424Z,16.95
2022-08-23T04:47:56.512Z,17.10
2022-08-23T04:53:00.062Z,16.75
2022-08-23T04:58:04.646Z,14.48
2022-08-23T05:03:07.788Z,14.38
2022-08-23T05:08:10.737Z,12.13
2022-08-23T05:13:15.214Z,10.02
2022-08-23T05:18:18.711Z,10.23
2022-08-23T05:23:23.571Z,11.05
2022-08-23T05:28:37.650Z,11.60
2022-08-23T05:33:41.741Z,16.60
2022-08-23T05:38:47.414Z,16.23
2022-08-23T05:43:51.758Z,12.57
2022-08-23T05:48:54.999Z,9.55
2022-08-23T05:54:00.418Z,9.95
2022-08-23T05:59:12.362Z,10.65
2022-08-23T06:04:15.996Z,9.13
2022-08-23T06:09:19.694Z,9.07
2022-08-23T06:14:24.443Z,8.63
2022-08-23T06:19:27.594Z,8.85
2022-08-23T06:24:30.809Z,9.35
2022-08-23T06:29:35.426Z,8.73
2022-08-23T06:34:39.113Z,10.52
2022-08-23T06:39:43.809Z,7.90
2022-08-23T06:44:48.456Z,9.25
2022-08-23T06:49:57.789Z,10.82
2022-08-23T06:55:02.450Z,9.82
2022-08-23T07:00:10.108Z,9.20
2022-08-23T07:05:13.065Z,10.57
2022-08-23T07:10:16.052Z,8.95
2022-08-23T07:15:20.952Z,9.82
2022-08-23T07:20:23.857Z,9.18
2022-08-23T07:25:27.648Z,9.23
2022-08-23T07:30:32.155Z,10.43
2022-08-23T07:35:40.097Z,9.48
2022-08-23T07:40:44.117Z,10.20
2022-08-23T07:45:58.374Z,10.27
2022-08-23T07:51:03.049Z,10.93
2022-08-23T07:56:07.093Z,10.10
2022-08-23T08:01:16.382Z,12.35
2022-08-23T08:06:23.825Z,11.15
2022-08-23T08:11:34.259Z,12.35
2022-08-23T08:16:42.581Z,11.20
2022-08-23T08:21:47.314Z,10.77
2022-08-23T08:26:50.265Z,11.18
2022-08-23T08:31:54.712Z,10.77
2022-08-23T08:36:58.756Z,11.52
2022-08-23T08:42:23.390Z,13.57
2022-08-23T08:47:40.767Z,10.48
2022-08-23T08:52:48.098Z,11.60
2022-08-23T08:57:52.463Z,10.40
2022-08-23T09:02:59.798Z,10.07
2022-08-23T09:08:14.331Z,10.52
2022-08-23T09:13:46.353Z,10.45
2022-08-23T09:18:53.351Z,9.55
2022-08-23T09:24:00.879Z,10.77
2022-08-23T09:29:13.286Z,10.25
2022-08-23T09:34:21.097Z,10.88
2022-08-23T09:39:30.737Z,9.00
2022-08-23T09:44:39.937Z,9.82
2022-08-23T09:49:48.578Z,10.18
2022-08-23T09:54:56.764Z,9.20
2022-08-23T10:00:02.224Z,9.00
2022-08-23T10:05:18.625Z,7.35
2022-08-23T10:10:28.221Z,7.07
2022-08-23T10:15:52.351Z,9.05
2022-08-23T10:21:03.298Z,8.23
2022-08-23T10:31:20.852Z,6.50
2022-08-23T10:36:34.050Z,6.55
2022-08-23T10:41:53.473Z,7.20
2022-08-23T10:47:10.559Z,7.00
2022-08-23T10:52:20.994Z,7.55
2022-08-23T10:57:29.127Z,7.15
2022-08-23T11:02:41.767Z,6.30
2022-08-23T11:07:57.733Z,6.72
2022-08-23T11:13:06.551Z,6.45
2022-08-23T11:18:10.989Z,7.20
2022-08-23T11:23:18.397Z,6.30
2022-08-23T11:28:39.932Z,6.53
2022-08-23T11:33:47.108Z,6.40
2022-08-23T11:39:10.981Z,6.05
2022-08-23T11:44:27.968Z,6.88
2022-08-23T11:49:58.267Z,6.85
2022-08-23T11:55:26.366Z,6.57
2022-08-23T12:01:03.180Z,7.72
2022-08-23T12:06:39.258Z,7.72
2022-08-23T12:12:24.435Z,7.72
2022-08-23T12:18:04.784Z,7.45
2022-08-23T12:23:18.037Z,7.78
2022-08-23T12:28:33.968Z,7.88
2022-08-23T12:33:49.978Z,9.32
2022-08-23T12:39:02.811Z,8.32
2022-08-23T12:44:09.918Z,8.77
2022-08-23T12:49:25.526Z,7.78
2022-08-23T12:54:38.682Z,8.90
2022-08-23T12:59:49.888Z,8.98
2022-08-23T13:04:54.524Z,8.18
2022-08-23T13:09:57.909Z,9.75
2022-08-23T13:15:05.001Z,10.30
2022-08-23T13:20:21.662Z,9.20
2022-08-23T13:25:29.527Z,9.82
2022-08-23T13:30:37.769Z,8.40
2022-08-23T13:35:44.450Z,9.27
2022-08-23T13:40:57.424Z,9.65
2022-08-23T13:46:12.767Z,10.13
2022-08-23T13:51:20.949Z,9.55
2022-08-23T13:56:24.786Z,10.15
2022-08-23T14:01:30.019Z,9.85
2022-08-23T14:06:33.405Z,9.65
2022-08-23T14:11:37.362Z,10.70
2022-08-23T14:16:42.067Z,10.60
2022-08-23T14:21:46.954Z,9.10
2022-08-23T14:26:52.244Z,9.60
2022-08-23T14:31:59.362Z,9.60
2022-08-23T14:42:25.778Z,10.68
2022-08-23T14:47:30.355Z,10.52
2022-08-23T14:52:33.723Z,9.10
2022-08-23T14:57:37.177Z,10.48
2022-08-23T15:02:43.252Z,11.80
2022-08-23T15:07:46.715Z,9.35
2022-08-23T15:13:01.915Z,9.68
2022-08-23T15:18:16.014Z,10.65
2022-08-23T15:23:19.080Z,10.25
2022-08-23T15:28:23.693Z,9.40
2022-08-23T15:33:30.806Z,9.90
2022-08-23T15:38:36.990Z,9.82
2022-08-23T15:43:40.545Z,10.73
2022-08-23T15:48:49.128Z,8.65
2022-08-23T15:53:52.365Z,9.82
2022-08-23T15:58:56.008Z,11.05
2022-08-23T16:04:02.058Z,9.68
2022-08-23T16:09:07.860Z,9.02
2022-08-23T16:14:12.208Z,9.77
2022-08-23T16:19:17.011Z,10.43
2022-08-23T16:24:20.226Z,10.50
2022-08-23T16:29:32.341Z,10.25
2022-08-23T16:34:36.877Z,10.32
2022-08-23T16:39:40.992Z,11.43
2022-08-23T16:44:44.430Z,9.07
2022-08-23T16:49:48.936Z,9.68
2022-08-23T16:54:52.145Z,10.32
2022-08-23T16:59:55.952Z,6.93
2022-08-23T17:05:00.882Z,5.53
2022-08-23T17:10:04.604Z,5.55
2022-08-23T17:15:09.351Z,5.15
2022-08-23T17:20:14.965Z,5.38
2022-08-23T17:25:18.153Z,4.85
2022-08-23T17:30:23.499Z,4.88
2022-08-23T17:35:33.898Z,5.18
2022-08-23T17:40:40.206Z,5.63
2022-08-23T17:45:47.045Z,5.55
2022-08-23T17:50:51.936Z,6.60
2022-08-23T17:55:54.681Z,6.65
2022-08-23T18:00:57.886Z,5.90
2022-08-23T18:06:02.947Z,5.00
2022-08-23T18:11:20.923Z,5.00
2022-08-23T18:16:31.855Z,5.97
2022-08-23T18:21:40.532Z,6.28
2022-08-23T18:27:03.455Z,5.45
2022-08-23T18:32:08.717Z,5.50
2022-08-23T18:37:21.845Z,5.80
2022-08-23T18:42:25.417Z,6.30
2022-08-23T18:47:28.533Z,5.85
2022-08-23T18:52:33.223Z,5.55
2022-08-23T18:57:36.227Z,6.38
2022-08-23T19:02:39.608Z,6.55
2022-08-23T19:07:44.506Z,5.90
2022-08-23T19:12:51.854Z,6.30
2022-08-23T19:17:58.331Z,6.50
2022-08-23T19:23:02.856Z,6.22
2022-08-23T19:28:06.122Z,5.97
2022-08-23T19:33:08.949Z,6.40
2022-08-23T19:38:14.505Z,6.95
2022-08-23T19:43:18.350Z,6.55
2022-08-23T19:48:21.584Z,6.20
2022-08-23T19:53:26.618Z,6.43
2022-08-23T19:58:29.433Z,6.18
2022-08-23T20:03:32.516Z,6.45
2022-08-23T20:08:36.762Z,6.40
2022-08-23T20:13:39.905Z,6.72
2022-08-23T20:18:43.667Z,6.43
2022-08-23T20:24:02.232Z,6.10
2022-08-23T20:29:06.100Z,6.60
2022-08-23T20:34:10.479Z,7.18
2022-08-23T20:39:21.869Z,7.07
2022-08-23T20:44:26.923Z,6.80
2022-08-23T20:49:29.833Z,7.18
2022-08-23T20:54:39.049Z,7.10
2022-08-23T20:59:44.695Z,6.70
2022-08-23T21:04:48.531Z,7.30
2022-08-23T21:09:52.854Z,6.95
2022-08-23T21:14:56.988Z,7.03
2022-08-23T21:20:00.274Z,7.38
2022-08-23T21:25:05.510Z,6.93
2022-08-23T21:30:10.281Z,7.47
2022-08-23T21:35:14.071Z,7.95
2022-08-23T21:40:18.702Z,7.22
2022-08-23T21:45:22.004Z,8.68
2022-08-23T21:50:28.456Z,6.93
2022-08-23T21:55:36.184Z,6.97
2022-08-23T22:00:41.437Z,7.80
2022-08-23T22:05:45.633Z,7.68
2022-08-23T22:10:57.445Z,9.25
2022-08-23T22:16:04.578Z,8.63
2022-08-23T22:21:07.614Z,8.52
2022-08-23T22:26:14.029Z,9.23
2022-08-23T22:31:17.185Z,8.98
2022-08-23T22:36:22.830Z,9.15
2022-08-23T22:41:29.743Z,8.68
2022-08-23T22:46:34.572Z,8.30
2022-08-23T22:51:37.673Z,11.00
2022-08-23T22:56:44.165Z,11.07
2022-08-23T23:01:49.757Z,10.30
2022-08-23T23:06:53.722Z,8.32
2022-08-23T23:11:58.182Z,11.10
2022-08-23T23:17:01.168Z,11.98
2022-08-23T23:22:06.113Z,9.43
2022-08-23T23:27:10.563Z,11.27
2022-08-23T23:32:13.430Z,9.90
2022-08-23T23:37:16.258Z,9.85
2022-08-23T23:42:20.571Z,12.25
2022-08-23T23:47:23.561Z,11.13
2022-08-23T23:52:26.602Z,11.75
2022-08-23T23:57:33.441Z,11.07
